createdAt,value
2022-12-01T00:01:21.979Z,4.03
2022-12-01T00:03:49.170Z,4.05
2022-12-01T00:06:22.122Z,4.13
2022-12-01T00:09:13.983Z,4.28
2022-12-01T00:11:43.532Z,3.92
2022-12-01T00:14:10.427Z,4.57
2022-12-01T00:16:37.349Z,3.80
2022-12-01T00:19:04.369Z,4.47
2022-12-01T00:21:31.261Z,4.38
2022-12-01T00:24:00.188Z,4.32
2022-12-01T00:26:28.050Z,4.78
2022-12-01T00:28:59.859Z,4.35
2022-12-01T00:31:27.764Z,3.95
2022-12-01T00:33:55.238Z,4.10
2022-12-01T00:36:22.743Z,4.57
2022-12-01T00:38:54.462Z,4.57
2022-12-01T00:41:22.728Z,4.78
2022-12-01T00:43:50.300Z,4.20
2022-12-01T00:46:18.262Z,3.95
2022-12-01T00:48:45.307Z,4.90
2022-12-01T00:51:12.234Z,4.28
2022-12-01T00:53:39.090Z,4.63
2022-12-01T00:56:06.315Z,4.55
2022-12-01T00:58:33.379Z,4.57
2022-12-01T01:01:02.021Z,4.57
2022-12-01T01:03:30.074Z,4.20
2022-12-01T01:06:03.062Z,4.72
2022-12-01T01:08:31.313Z,4.10
2022-12-01T01:11:01.366Z,4.72
2022-12-01T01:13:28.961Z,4.85
2022-12-01T01:16:21.288Z,4.72
2022-12-01T01:18:49.037Z,4.30
2022-12-01T01:21:21.051Z,4.45
2022-12-01T01:23:50.088Z,4.72
2022-12-01T01:26:22.227Z,4.45
2022-12-01T01:28:50.934Z,4.60
2022-12-01T01:31:24.433Z,4.95
2022-12-01T01:33:58.642Z,4.88
2022-12-01T01:36:26.843Z,4.88
2022-12-01T01:38:55.200Z,4.90
2022-12-01T01:41:23.220Z,5.10
2022-12-01T01:43:55.814Z,4.97
2022-12-01T01:46:29.767Z,5.25
2022-12-01T01:49:14.462Z,5.10
2022-12-01T01:51:53.619Z,4.55
2022-12-01T01:54:40.966Z,4.65
2022-12-01T01:57:12.034Z,5.03
2022-12-01T01:59:52.249Z,5.03
2022-12-01T02:02:19.265Z,4.75
2022-12-01T02:04:51.604Z,5.07
2022-12-01T02:07:22.771Z,4.60
2022-12-01T02:09:49.956Z,4.82
2022-12-01T02:13:00.226Z,5.00
2022-12-01T02:16:12.541Z,4.40
2022-12-01T02:18:53.625Z,5.15
2022-12-01T02:22:09.974Z,5.55
2022-12-01T02:25:16.476Z,5.22
2022-12-01T02:28:14.052Z,5.38
2022-12-01T02:31:15.360Z,5.32
2022-12-01T02:33:56.018Z,4.78
2022-12-01T02:36:33.502Z,4.75
2022-12-01T02:39:27.367Z,5.40
2022-12-01T02:42:39.009Z,5.40
2022-12-01T02:45:13.523Z,5.10
2022-12-01T02:47:43.193Z,5.07
2022-12-01T02:50:12.687Z,5.45
2022-12-01T02:52:42.326Z,4.90
2022-12-01T02:55:09.443Z,5.05
2022-12-01T02:57:36.392Z,4.38
2022-12-01T03:00:04.739Z,5.32
2022-12-01T03:02:49.837Z,5.18
2022-12-01T03:05:29.512Z,5.38
2022-12-01T03:08:22.471Z,5.35
2022-12-01T03:10:56.245Z,5.13
2022-12-01T03:13:52.350Z,5.30
2022-12-01T03:16:42.181Z,5.30
2022-12-01T03:19:41.484Z,5.38
2022-12-01T03:22:18.154Z,4.93
2022-12-01T03:24:49.440Z,5.50
2022-12-01T03:27:22.639Z,5.40
2022-12-01T03:29:59.129Z,6.30
2022-12-01T03:32:47.502Z,5.20
2022-12-01T03:35:41.962Z,5.28
2022-12-01T03:38:29.884Z,5.63
2022-12-01T03:41:02.087Z,5.40
2022-12-01T03:43:36.827Z,5.75
2022-12-01T03:46:12.256Z,5.72
2022-12-01T03:48:42.003Z,5.43
2022-12-01T03:51:37.309Z,5.47
2022-12-01T03:54:19.866Z,5.47
2022-12-01T03:56:59.552Z,5.72
2022-12-01T03:59:29.972Z,6.00
2022-12-01T04:01:58.317Z,4.90
2022-12-01T04:04:25.247Z,5.35
2022-12-01T04:06:52.711Z,5.10
2022-12-01T04:09:22.269Z,5.88
2022-12-01T04:12:07.494Z,5.25
2022-12-01T04:14:34.544Z,6.15
2022-12-01T04:17:01.442Z,5.80
2022-12-01T04:19:28.378Z,5.50
2022-12-01T04:21:55.358Z,5.68
2022-12-01T04:24:22.312Z,5.13
2022-12-01T04:26:52.017Z,5.25
2022-12-01T04:29:21.629Z,4.82
2022-12-01T04:31:48.635Z,4.57
2022-12-01T04:34:18.352Z,4.60
2022-12-01T04:36:45.267Z,4.88
2022-12-01T04:39:12.185Z,5.50
2022-12-01T04:41:39.127Z,5.50
2022-12-01T04:44:06.115Z,5.57
2022-12-01T04:46:33.186Z,5.43
2022-12-01T04:49:00.159Z,4.93
2022-12-01T04:51:29.263Z,5.47
2022-12-01T04:53:59.329Z,5.43
2022-12-01T04:56:29.120Z,4.88
2022-12-01T04:58:59.711Z,5.60
2022-12-01T05:01:27.602Z,5.70
2022-12-01T05:03:54.545Z,5.50
2022-12-01T05:06:28.718Z,5.45
2022-12-01T05:09:02.627Z,4.82
2022-12-01T05:11:31.887Z,5.50
2022-12-01T05:13:59.782Z,5.20
2022-12-01T05:16:35.147Z,5.53
2022-12-01T05:19:23.948Z,5.22
2022-12-01T05:21:52.589Z,5.18
2022-12-01T05:24:21.144Z,4.97
2022-12-01T05:26:54.181Z,5.65
2022-12-01T05:29:21.113Z,5.72
2022-12-01T05:31:49.157Z,4.90
2022-12-01T05:34:18.754Z,5.18
2022-12-01T05:36:45.810Z,5.30
2022-12-01T05:39:12.770Z,5.63
2022-12-01T05:41:40.885Z,5.65
2022-12-01T05:44:07.943Z,5.70
2022-12-01T05:46:34.957Z,5.63
2022-12-01T05:49:04.875Z,5.75
2022-12-01T05:51:31.870Z,5.07
2022-12-01T05:54:02.441Z,5.68
2022-12-01T05:56:32.266Z,5.13
2022-12-01T05:58:59.164Z,5.35
2022-12-01T06:01:26.217Z,6.03
2022-12-01T06:03:54.397Z,5.97
2022-12-01T06:06:21.384Z,5.30
2022-12-01T06:08:48.409Z,5.15
2022-12-01T06:11:15.530Z,5.60
2022-12-01T06:13:42.454Z,5.32
2022-12-01T06:16:09.763Z,5.47
2022-12-01T06:18:39.107Z,5.97
2022-12-01T06:21:07.216Z,5.15
2022-12-01T06:23:36.849Z,5.07
2022-12-01T06:26:04.147Z,5.68
2022-12-01T06:28:31.170Z,5.80
2022-12-01T06:31:03.220Z,6.25
2022-12-01T06:33:31.970Z,5.70
2022-12-01T06:36:09.758Z,5.53
2022-12-01T06:38:37.641Z,6.25
2022-12-01T06:41:06.895Z,5.78
2022-12-01T06:43:44.789Z,5.85
2022-12-01T06:46:11.783Z,5.68
2022-12-01T06:48:39.138Z,6.13
2022-12-01T06:51:06.116Z,6.70
2022-12-01T06:53:36.243Z,5.97
2022-12-01T06:56:05.314Z,6.00
2022-12-01T06:58:34.576Z,6.18
2022-12-01T07:01:12.331Z,6.18
2022-12-01T07:03:39.802Z,6.38
2022-12-01T07:06:07.065Z,5.72
2022-12-01T07:08:34.098Z,5.57
2022-12-01T07:11:08.235Z,5.85
2022-12-01T07:13:35.920Z,5.80
2022-12-01T07:16:06.422Z,5.72
2022-12-01T07:18:35.023Z,6.07
2022-12-01T07:21:05.939Z,6.22
2022-12-01T07:23:33.715Z,5.72
2022-12-01T07:26:06.719Z,6.07
2022-12-01T07:28:37.343Z,5.50
2022-12-01T07:31:09.516Z,5.88
2022-12-01T07:33:37.604Z,6.25
2022-12-01T07:36:06.161Z,6.93
2022-12-01T07:38:34.971Z,6.65
2022-12-01T07:41:22.193Z,7.10
2022-12-01T07:43:49.449Z,7.28
2022-12-01T07:46:26.388Z,10.43
2022-12-01T07:48:55.440Z,14.25
2022-12-01T07:51:25.329Z,18.33
2022-12-01T07:53:54.447Z,23.65
2022-12-01T07:56:22.808Z,19.90
2022-12-01T07:58:50.276Z,18.65
2022-12-01T08:01:24.880Z,13.77
2022-12-01T08:03:58.341Z,13.18
2022-12-01T08:06:26.942Z,11.93
2022-12-01T08:08:53.911Z,11.65
2022-12-01T08:11:25.456Z,12.75
2022-12-01T08:13:56.252Z,11.32
2022-12-01T08:16:28.577Z,11.63
2022-12-01T08:18:58.447Z,11.23
2022-12-01T08:21:25.497Z,11.77
2022-12-01T08:24:02.335Z,13.02
2022-12-01T08:26:29.965Z,11.88
2022-12-01T08:28:59.912Z,12.95
2022-12-01T08:31:33.195Z,13.27
2022-12-01T08:34:00.317Z,10.57
2022-12-01T08:36:27.365Z,11.70
2022-12-01T08:38:56.023Z,10.65
2022-12-01T08:41:24.737Z,12.55
2022-12-01T08:43:59.439Z,10.15
2022-12-01T08:46:32.782Z,9.77
2022-12-01T08:49:00.769Z,9.73
2022-12-01T08:51:31.315Z,9.38
2022-12-01T08:54:02.991Z,10.50
2022-12-01T08:56:40.706Z,14.45
2022-12-01T08:59:08.747Z,10.45
2022-12-01T09:01:51.992Z,12.60
2022-12-01T09:04:22.146Z,10.98
2022-12-01T09:06:55.081Z,9.77
2022-12-01T09:09:26.959Z,10.40
2022-12-01T09:11:55.158Z,10.30
2022-12-01T09:14:23.594Z,12.02
2022-12-01T09:16:51.366Z,9.13
2022-12-01T09:19:24.708Z,12.13
2022-12-01T09:21:55.005Z,10.07
2022-12-01T09:24:22.315Z,9.60
2022-12-01T09:26:49.384Z,10.55
2022-12-01T09:29:17.367Z,9.25
2022-12-01T09:31:45.162Z,11.88
2022-12-01T09:34:16.218Z,12.10
2022-12-01T09:36:46.900Z,13.75
2022-12-01T09:39:20.653Z,14.63
2022-12-01T09:42:06.150Z,14.00
2022-12-01T09:44:51.958Z,17.17
2022-12-01T09:47:41.440Z,13.38
2022-12-01T09:50:19.494Z,11.07
2022-12-01T09:53:06.781Z,11.27
2022-12-01T09:55:35.167Z,12.02
2022-12-01T09:58:06.734Z,11.27
2022-12-01T10:00:40.949Z,14.57
2022-12-01T10:03:46.409Z,11.88
2022-12-01T10:06:28.728Z,14.73
2022-12-01T10:09:23.441Z,10.52
2022-12-01T10:12:01.149Z,13.05
2022-12-01T10:14:36.210Z,11.02
2022-12-01T10:17:41.982Z,13.95
2022-12-01T10:20:17.722Z,14.00
2022-12-01T10:23:22.400Z,14.00
2022-12-01T10:25:59.446Z,15.85
2022-12-01T10:28:56.307Z,13.10
2022-12-01T10:31:34.956Z,11.40
2022-12-01T10:34:23.568Z,13.18
2022-12-01T10:36:50.943Z,14.35
2022-12-01T10:39:31.265Z,11.85
2022-12-01T10:42:21.270Z,14.02
2022-12-01T10:44:50.837Z,12.02
2022-12-01T10:47:23.050Z,11.57
2022-12-01T10:49:50.868Z,15.05
2022-12-01T10:52:41.183Z,12.73
2022-12-01T10:55:23.559Z,13.85
2022-12-01T10:57:53.767Z,12.70
2022-12-01T11:00:58.449Z,17.13
2022-12-01T11:03:26.536Z,13.13
2022-12-01T11:08:56.701Z,14.95
2022-12-01T11:11:37.936Z,12.57
2022-12-01T11:14:20.451Z,11.98
2022-12-01T11:16:51.916Z,11.23
2022-12-01T11:19:30.446Z,12.23
2022-12-01T11:22:25.023Z,12.60
2022-12-01T11:25:03.083Z,11.63
2022-12-01T11:27:49.845Z,14.25
2022-12-01T11:30:30.467Z,11.00
2022-12-01T11:33:03.408Z,10.88
2022-12-01T11:35:34.915Z,11.07
2022-12-01T11:40:57.888Z,11.60
2022-12-01T11:43:36.176Z,14.50
2022-12-01T11:46:09.033Z,14.18
2022-12-01T11:48:36.886Z,10.25
2022-12-01T11:51:27.235Z,9.60
2022-12-01T11:54:17.369Z,12.63
2022-12-01T11:56:46.653Z,12.18
2022-12-01T11:59:27.321Z,13.45
2022-12-01T12:02:41.474Z,12.82
2022-12-01T12:05:42.405Z,13.05
2022-12-01T12:08:41.581Z,14.00
2022-12-01T12:11:21.776Z,14.35
2022-12-01T12:14:13.488Z,11.95
2022-12-01T12:17:16.769Z,11.95
2022-12-01T12:20:16.643Z,10.73
2022-12-01T12:23:13.386Z,9.55
2022-12-01T12:26:10.726Z,9.65
2022-12-01T12:28:52.202Z,9.50
2022-12-01T12:32:05.490Z,11.05
2022-12-01T12:34:38.133Z,8.77
2022-12-01T12:37:37.111Z,10.18
2022-12-01T12:40:31.877Z,11.52
2022-12-01T12:43:48.484Z,11.60
2022-12-01T12:46:43.981Z,9.30
2022-12-01T12:49:34.336Z,8.90
2022-12-01T12:52:27.633Z,13.07
2022-12-01T12:55:03.981Z,11.57
2022-12-01T12:57:38.217Z,10.73
2022-12-01T13:00:23.640Z,11.00
2022-12-01T13:03:21.489Z,11.10
2022-12-01T13:06:29.440Z,13.35
2022-12-01T13:09:28.860Z,10.45
2022-12-01T13:12:02.915Z,9.70
2022-12-01T13:15:15.520Z,9.63
2022-12-01T13:18:19.630Z,8.77
2022-12-01T13:20:53.655Z,7.43
2022-12-01T13:23:22.033Z,10.68
2022-12-01T13:25:55.465Z,10.57
2022-12-01T13:28:45.631Z,13.00
2022-12-01T13:31:18.737Z,10.18
2022-12-01T13:33:54.072Z,11.33
2022-12-01T13:39:27.928Z,7.90
2022-12-01T13:42:12.539Z,8.20
2022-12-01T13:44:53.120Z,12.77
2022-12-01T13:47:20.066Z,10.82
2022-12-01T13:49:50.106Z,12.23
2022-12-01T13:52:31.348Z,10.52
2022-12-01T13:55:22.838Z,9.68
2022-12-01T13:57:59.990Z,9.55
2022-12-01T14:00:31.110Z,8.93
2022-12-01T14:03:13.175Z,12.45
2022-12-01T14:05:46.143Z,11.35
2022-12-01T14:08:46.097Z,11.32
2022-12-01T14:11:29.672Z,11.68
2022-12-01T14:14:25.977Z,10.40
2022-12-01T14:16:58.611Z,12.68
2022-12-01T14:19:52.201Z,16.65
